createdAt,value
2022-11-08T00:01:36.191Z,99486.13
2022-11-08T00:04:10.657Z,99480.66
2022-11-08T00:07:00.565Z,99490.25
2022-11-08T00:09:52.214Z,99492.50
2022-11-08T00:12:41.079Z,99504.03
2022-11-08T00:15:14.339Z,99510.84
2022-11-08T00:17:46.372Z,99505.25
2022-11-08T00:20:19.164Z,99508.44
2022-11-08T00:22:51.516Z,99506.09
2022-11-08T00:25:26.205Z,99515.28
2022-11-08T00:27:58.164Z,99525.81
2022-11-08T00:30:31.083Z,99525.34
2022-11-08T00:33:03.781Z,99529.56
2022-11-08T00:35:36.654Z,99531.88
2022-11-08T00:38:08.712Z,99533.31
2022-11-08T00:40:42.943Z,99539.63
2022-11-08T00:43:15.068Z,99540.41
2022-11-08T00:45:47.960Z,99545.44
2022-11-08T00:48:20.510Z,99549.09
2022-11-08T00:50:53.724Z,99553.00
2022-11-08T00:53:26.396Z,99553.97
2022-11-08T00:56:05.306Z,99566.91
2022-11-08T00:58:37.708Z,99563.66
2022-11-08T01:01:14.355Z,99564.53
2022-11-08T01:03:47.161Z,99564.53
2022-11-08T01:06:22.592Z,99570.00
2022-11-08T01:08:55.210Z,99582.16
2022-11-08T01:11:29.893Z,99579.91
2022-11-08T01:14:04.533Z,99578.00
2022-11-08T01:16:38.366Z,99588.94
2022-11-08T01:19:14.717Z,99590.63
2022-11-08T01:21:47.241Z,99595.56
2022-11-08T01:24:20.555Z,99597.31
2022-11-08T01:26:54.550Z,99606.16
2022-11-08T01:29:26.763Z,99600.09
2022-11-08T01:31:59.813Z,99605.03
2022-11-08T01:34:32.282Z,99610.06
2022-11-08T01:37:04.636Z,99611.47
2022-11-08T01:39:37.070Z,99616.72
2022-11-08T01:42:11.279Z,99618.13
2022-11-08T01:45:01.459Z,99623.97
2022-11-08T01:47:33.470Z,99623.97
2022-11-08T01:50:09.627Z,99625.03
2022-11-08T01:52:45.211Z,99628.47
2022-11-08T01:55:21.859Z,99640.31
2022-11-08T01:57:59.993Z,99637.56
2022-11-08T02:00:32.817Z,99642.00
2022-11-08T02:03:07.781Z,99644.41
2022-11-08T02:05:40.673Z,99647.19
2022-11-08T02:08:20.174Z,99650.47
2022-11-08T02:10:55.655Z,99655.41
2022-11-08T02:13:31.821Z,99668.50
2022-11-08T02:16:04.624Z,99668.88
2022-11-08T02:18:36.855Z,99667.41
2022-11-08T02:21:15.342Z,99668.28
2022-11-08T02:23:51.489Z,99681.00
2022-11-08T02:26:28.148Z,99682.16
2022-11-08T02:29:00.323Z,99683.44
2022-11-08T02:31:32.864Z,99685.00
2022-11-08T02:34:05.111Z,99689.22
2022-11-08T02:36:37.447Z,99694.50
2022-11-08T02:39:11.611Z,99701.16
2022-11-08T02:41:44.160Z,99702.03
2022-11-08T02:44:16.631Z,99705.63
2022-11-08T02:46:49.464Z,99704.53
2022-11-08T02:49:21.519Z,99713.47
2022-11-08T02:51:56.932Z,99713.47
2022-11-08T02:54:30.762Z,99721.56
2022-11-08T02:57:03.266Z,99718.78
2022-11-08T02:59:35.986Z,99728.13
2022-11-08T03:02:08.620Z,99719.53
2022-11-08T03:04:42.451Z,99727.88
2022-11-08T03:07:15.038Z,99727.88
2022-11-08T03:09:49.688Z,99731.06
2022-11-08T03:12:22.913Z,99736.78
2022-11-08T03:14:55.596Z,99737.38
2022-11-08T03:17:28.995Z,99742.97
2022-11-08T03:20:01.632Z,99735.81
2022-11-08T03:22:33.979Z,99731.19
2022-11-08T03:25:07.880Z,99735.47
2022-11-08T03:27:39.991Z,99737.03
2022-11-08T03:30:13.017Z,99738.22
2022-11-08T03:32:47.105Z,99736.88
2022-11-08T03:35:19.514Z,99743.09
2022-11-08T03:37:55.500Z,99741.66
2022-11-08T03:40:29.959Z,99745.47
2022-11-08T03:43:02.720Z,99757.44
2022-11-08T03:45:35.111Z,99755.50
2022-11-08T03:48:07.803Z,99757.25
2022-11-08T03:50:40.217Z,99755.50
2022-11-08T03:53:13.081Z,99759.69
2022-11-08T03:55:48.411Z,99757.06
2022-11-08T03:58:20.809Z,99761.47
2022-11-08T04:00:53.869Z,99764.78
2022-11-08T04:03:26.912Z,99762.06
2022-11-08T04:05:59.371Z,99765.41
2022-11-08T04:08:31.778Z,99775.78
2022-11-08T04:11:19.042Z,99771.25
2022-11-08T04:14:07.510Z,99772.88
2022-11-08T04:16:40.453Z,99769.50
2022-11-08T04:19:29.770Z,99775.72
2022-11-08T04:22:02.978Z,99776.66
2022-11-08T04:24:35.581Z,99771.13
2022-11-08T04:27:09.833Z,99768.97
2022-11-08T04:29:42.835Z,99767.72
2022-11-08T04:32:15.130Z,99763.19
2022-11-08T04:34:50.771Z,99769.19
2022-11-08T04:37:23.307Z,99771.78
2022-11-08T04:39:55.452Z,99771.06
2022-11-08T04:42:30.213Z,99769.44
2022-11-08T04:45:02.917Z,99766.56
2022-11-08T04:47:39.424Z,99763.13
2022-11-08T04:50:13.896Z,99765.44
2022-11-08T04:52:47.172Z,99767.00
2022-11-08T04:55:22.742Z,99762.13
2022-11-08T04:58:02.015Z,99756.56
2022-11-08T05:00:34.287Z,99751.63
2022-11-08T05:03:07.204Z,99753.50
2022-11-08T05:05:39.895Z,99754.44
2022-11-08T05:08:14.577Z,99748.63
2022-11-08T05:10:49.104Z,99747.94
2022-11-08T05:13:24.660Z,99748.78
2022-11-08T05:15:57.446Z,99744.22
2022-11-08T05:18:30.267Z,99735.28
2022-11-08T05:21:22.777Z,99734.94
2022-11-08T05:23:55.413Z,99728.44
2022-11-08T05:26:28.843Z,99727.84
2022-11-08T05:29:02.782Z,99724.53
2022-11-08T05:31:35.228Z,99726.88
2022-11-08T05:34:08.893Z,99717.16
2022-11-08T05:36:42.006Z,99717.47
2022-11-08T05:39:14.763Z,99716.00
2022-11-08T05:41:47.197Z,99706.63
2022-11-08T05:44:31.273Z,99707.88
2022-11-08T05:47:04.793Z,99700.22
2022-11-08T05:49:42.295Z,99700.50
2022-11-08T05:52:15.759Z,99706.50
2022-11-08T05:54:49.082Z,99699.09
2022-11-08T05:57:23.432Z,99692.81
2022-11-08T06:00:09.171Z,99692.13
2022-11-08T06:02:46.596Z,99690.84
2022-11-08T06:05:19.107Z,99676.97
2022-11-08T06:07:54.790Z,99681.66
2022-11-08T06:10:46.008Z,99673.09
2022-11-08T06:13:19.785Z,99659.81
2022-11-08T06:15:57.297Z,99665.31
2022-11-08T06:18:29.915Z,99650.69
2022-11-08T06:21:03.724Z,99650.22
2022-11-08T06:23:42.200Z,99642.56
2022-11-08T06:26:17.588Z,99632.47
2022-11-08T06:28:50.443Z,99634.94
2022-11-08T06:31:25.603Z,99637.53
2022-11-08T06:33:57.800Z,99627.91
2022-11-08T06:36:34.834Z,99617.47
2022-11-08T06:39:25.095Z,99610.38
2022-11-08T06:41:57.668Z,99615.97
2022-11-08T06:44:34.258Z,99603.94
2022-11-08T06:47:17.395Z,99589.28
2022-11-08T06:49:51.855Z,99592.31
2022-11-08T06:52:26.615Z,99585.81
2022-11-08T06:55:00.280Z,99583.25
2022-11-08T06:57:32.379Z,99577.13
2022-11-08T07:00:16.217Z,99570.75
2022-11-08T07:02:57.901Z,99562.31
2022-11-08T07:05:31.702Z,99555.59
2022-11-08T07:08:12.603Z,99553.03
2022-11-08T07:10:46.423Z,99553.19
2022-11-08T07:13:21.613Z,99544.16
2022-11-08T07:15:54.955Z,99541.66
2022-11-08T07:18:31.839Z,99533.75
2022-11-08T07:21:07.324Z,99528.50
2022-11-08T07:23:40.226Z,99527.84
2022-11-08T07:26:12.864Z,99518.00
2022-11-08T07:28:46.532Z,99516.69
2022-11-08T07:31:21.374Z,99511.44
2022-11-08T07:34:09.560Z,99509.78
2022-11-08T07:36:51.955Z,99501.28
2022-11-08T07:39:55.022Z,99496.03
2022-11-08T07:42:43.814Z,99485.53
2022-11-08T07:45:28.929Z,99488.03
2022-11-08T07:48:09.753Z,99478.88
2022-11-08T07:50:48.699Z,99476.69
2022-11-08T07:53:22.800Z,99472.88
2022-11-08T07:55:56.802Z,99475.66
2022-11-08T07:58:29.695Z,99467.84
2022-11-08T08:01:05.745Z,99464.88
2022-11-08T08:03:41.159Z,99464.09
2022-11-08T08:06:15.558Z,99451.94
2022-11-08T08:08:49.678Z,99448.06
2022-11-08T08:11:23.401Z,99444.19
2022-11-08T08:13:57.446Z,99440.63
2022-11-08T08:16:33.031Z,99435.97
2022-11-08T08:19:08.657Z,99437.06
2022-11-08T08:21:43.599Z,99437.59
2022-11-08T08:24:17.311Z,99433.47
2022-11-08T08:26:54.817Z,99426.56
2022-11-08T08:29:30.413Z,99430.44
2022-11-08T08:32:07.135Z,99424.91
2022-11-08T08:34:40.279Z,99418.22
2022-11-08T08:37:18.909Z,99406.44
2022-11-08T08:39:52.144Z,99419.97
2022-11-08T08:42:24.223Z,99406.72
2022-11-08T08:44:57.991Z,99402.84
2022-11-08T08:47:32.592Z,99395.41
2022-11-08T08:50:08.608Z,99394.06
2022-11-08T08:52:43.483Z,99401.78
2022-11-08T08:55:16.249Z,99407.88
2022-11-08T08:57:53.391Z,99400.69
2022-11-08T09:03:22.179Z,99393.50
2022-11-08T09:05:54.552Z,99400.44
2022-11-08T09:08:43.836Z,99387.69
2022-11-08T09:11:30.790Z,99387.97
2022-11-08T09:14:16.498Z,99388.00
2022-11-08T09:16:51.187Z,99381.09
2022-11-08T09:19:32.972Z,99379.13
2022-11-08T09:22:48.185Z,99379.41
2022-11-08T09:25:23.096Z,99378.03
2022-11-08T09:28:18.214Z,99376.09
2022-11-08T09:30:50.699Z,99365.38
2022-11-08T09:36:06.903Z,99369.19
2022-11-08T09:38:48.341Z,99365.63
2022-11-08T09:42:19.382Z,99361.47
2022-11-08T09:45:28.320Z,99360.38
2022-11-08T09:48:05.430Z,99354.59
2022-11-08T09:50:45.250Z,99363.69
2022-11-08T09:53:22.408Z,99344.38
2022-11-08T09:56:00.395Z,99354.84
2022-11-08T09:58:40.961Z,99352.34
2022-11-08T10:01:24.491Z,99342.97
2022-11-08T10:04:07.288Z,99340.53
2022-11-08T10:07:07.274Z,99341.63
2022-11-08T10:09:57.140Z,99340.50
2022-11-08T10:12:38.970Z,99339.97
2022-11-08T10:15:25.301Z,99334.44
2022-11-08T10:18:28.097Z,99344.41
2022-11-08T10:21:09.536Z,99329.75
2022-11-08T10:23:55.892Z,99325.63
2022-11-08T10:29:40.648Z,99322.28
2022-11-08T10:32:28.393Z,99321.44
2022-11-08T10:35:52.019Z,99310.72
2022-11-08T10:38:32.282Z,99307.97
2022-11-08T10:41:20.497Z,99304.66
2022-11-08T10:43:58.666Z,99303.03
2022-11-08T10:46:48.735Z,99309.88
2022-11-08T10:49:36.151Z,99299.97
2022-11-08T10:52:28.560Z,99295.00
2022-11-08T10:55:04.241Z,99297.78
2022-11-08T10:57:46.646Z,99289.78
2022-11-08T11:00:35.570Z,99293.09
2022-11-08T11:03:32.105Z,99292.25
2022-11-08T11:06:07.595Z,99285.66
2022-11-08T11:08:55.764Z,99296.38
2022-11-08T11:11:43.167Z,99289.72
2022-11-08T11:14:22.534Z,99289.22
2022-11-08T11:17:00.913Z,99294.72
2022-11-08T11:19:36.797Z,99289.78
2022-11-08T11:22:13.641Z,99291.38
2022-11-08T11:24:56.363Z,99290.81
2022-11-08T11:27:38.293Z,99282.25
2022-11-08T11:30:32.461Z,99288.03
2022-11-08T11:33:26.087Z,99284.72
2022-11-08T11:36:02.768Z,99290.75
2022-11-08T11:38:42.440Z,99290.75
2022-11-08T11:41:21.500Z,99295.22
2022-11-08T11:44:01.949Z,99300.97
2022-11-08T11:46:42.792Z,99302.56
2022-11-08T11:49:20.285Z,99306.97
2022-11-08T11:51:57.300Z,99309.72
2022-11-08T11:54:33.612Z,99314.31
2022-11-08T11:57:20.614Z,99314.28
2022-11-08T12:00:07.538Z,99314.22
2022-11-08T12:03:08.488Z,99311.50
2022-11-08T12:05:51.243Z,99319.78
2022-11-08T12:08:35.046Z,99327.47
2022-11-08T12:11:37.628Z,99320.59
2022-11-08T12:14:27.512Z,99328.31
2022-11-08T12:17:12.560Z,99333.53
2022-11-08T12:19:56.416Z,99327.72
2022-11-08T12:22:46.729Z,99335.88
2022-11-08T12:25:27.556Z,99344.25
2022-11-08T12:28:09.296Z,99338.56
2022-11-08T12:30:54.358Z,99345.09
2022-11-08T12:33:42.873Z,99348.91
2022-11-08T12:36:36.514Z,99348.72
2022-11-08T12:39:23.493Z,99338.13
2022-11-08T12:42:06.905Z,99336.19
2022-11-08T12:45:03.518Z,99347.13
2022-11-08T12:47:43.420Z,99353.16
2022-11-08T12:50:29.303Z,99350.13
2022-11-08T12:53:23.362Z,99358.38
2022-11-08T12:56:02.352Z,99358.72
2022-11-08T12:58:41.623Z,99369.38
2022-11-08T13:01:17.224Z,99367.34
2022-11-08T13:04:28.979Z,99372.75
2022-11-08T13:07:08.251Z,99381.88
2022-11-08T13:09:56.271Z,99376.34
2022-11-08T13:12:44.200Z,99380.91
2022-11-08T13:15:22.862Z,99395.16
2022-11-08T13:18:36.550Z,99389.72
2022-11-08T13:21:39.676Z,99392.78
2022-11-08T13:24:45.620Z,99400.75
2022-11-08T13:27:37.812Z,99400.88
2022-11-08T13:30:47.062Z,99420.16
2022-11-08T13:33:30.571Z,99453.38
2022-11-08T13:36:17.545Z,99460.00
2022-11-08T13:39:06.364Z,99458.97
2022-11-08T13:42:06.469Z,99477.09
2022-11-08T13:45:01.600Z,99475.03
2022-11-08T13:48:03.757Z,99477.94
2022-11-08T13:51:43.191Z,99480.72
2022-11-08T13:54:56.429Z,99479.28
2022-11-08T13:58:00.133Z,99485.94
2022-11-08T14:00:49.599Z,99494.22
2022-11-08T14:03:41.011Z,99494.28
2022-11-08T14:06:21.759Z,99493.06
2022-11-08T14:09:07.053Z,99492.09
2022-11-08T14:11:57.660Z,99489.25
2022-11-08T14:14:54.872Z,99494.38
2022-11-08T14:17:43.831Z,99494.69
2022-11-08T14:20:27.553Z,99499.59
2022-11-08T14:23:05.331Z,99505.53
2022-11-08T14:25:40.086Z,99508.50
2022-11-08T14:28:28.515Z,99510.00
2022-11-08T14:31:09.895Z,99502.44
2022-11-08T14:33:46.686Z,99513.09
2022-11-08T14:36:22.112Z,99500.75
2022-11-08T14:39:06.043Z,99510.00
2022-11-08T14:41:39.395Z,99506.88
2022-11-08T14:44:27.761Z,99505.25
2022-11-08T14:47:09.587Z,99518.22
2022-11-08T14:49:42.569Z,99510.59
2022-11-08T14:52:18.795Z,99517.75
